createdAt,value
2022-11-24T00:03:27.529Z,99105.84
2022-11-24T00:08:23.988Z,99112.22
2022-11-24T00:13:20.541Z,99110.41
2022-11-24T00:18:16.887Z,99109.09
2022-11-24T00:23:13.250Z,99115.00
2022-11-24T00:28:09.651Z,99118.13
2022-11-24T00:33:06.008Z,99118.34
2022-11-24T00:38:02.374Z,99118.56
2022-11-24T00:42:58.796Z,99131.91
2022-11-24T00:47:55.184Z,99134.63
2022-11-24T00:52:51.553Z,99137.88
2022-11-24T00:57:47.929Z,99137.47
2022-11-24T01:02:44.475Z,99132.63
2022-11-24T01:07:40.972Z,99144.34
2022-11-24T01:12:37.367Z,99149.44
2022-11-24T01:17:33.850Z,99154.09
2022-11-24T01:22:30.699Z,99150.59
2022-11-24T01:27:27.127Z,99156.00
2022-11-24T01:32:23.601Z,99162.66
2022-11-24T01:37:20.016Z,99166.13
2022-11-24T01:42:16.474Z,99162.78
2022-11-24T01:47:36.482Z,99170.69
2022-11-24T01:52:43.867Z,99177.47
2022-11-24T01:57:47.053Z,99181.25
2022-11-24T02:02:45.099Z,99186.31
2022-11-24T02:07:41.779Z,99181.56
2022-11-24T02:12:40.795Z,99201.34
2022-11-24T02:17:37.534Z,99205.19
2022-11-24T02:22:55.331Z,99206.91
2022-11-24T02:27:54.268Z,99210.09
2022-11-24T02:32:51.506Z,99204.75
2022-11-24T02:37:48.515Z,99210.22
2022-11-24T02:42:47.032Z,99222.13
2022-11-24T02:47:43.607Z,99227.91
2022-11-24T02:52:40.027Z,99239.06
2022-11-24T02:57:36.412Z,99241.91
2022-11-24T03:02:32.937Z,99237.50
2022-11-24T03:07:29.349Z,99243.25
2022-11-24T03:12:25.757Z,99255.56
2022-11-24T03:17:22.104Z,99258.97
2022-11-24T03:22:18.488Z,99271.72
2022-11-24T03:27:14.915Z,99270.75
2022-11-24T03:32:11.265Z,99274.94
2022-11-24T03:37:07.640Z,99278.00
2022-11-24T03:42:04.273Z,99285.59
2022-11-24T03:47:00.650Z,99290.53
2022-11-24T03:51:57.157Z,99286.53
2022-11-24T03:56:54.028Z,99288.22
2022-11-24T04:01:50.571Z,99286.53
2022-11-24T04:06:46.975Z,99291.25
2022-11-24T04:12:01.782Z,99287.56
2022-11-24T04:16:58.204Z,99292.31
2022-11-24T04:21:54.557Z,99294.06
2022-11-24T04:26:50.921Z,99304.50
2022-11-24T04:31:47.366Z,99308.91
2022-11-24T04:36:43.812Z,99318.06
2022-11-24T04:41:40.263Z,99320.59
2022-11-24T04:46:36.730Z,99328.59
2022-11-24T04:51:33.365Z,99333.69
2022-11-24T04:56:29.830Z,99341.91
2022-11-24T05:01:26.767Z,99342.44
2022-11-24T05:06:23.469Z,99345.72
2022-11-24T05:11:20.336Z,99354.78
2022-11-24T05:16:16.784Z,99361.50
2022-11-24T05:21:13.615Z,99367.41
2022-11-24T05:26:10.031Z,99380.88
2022-11-24T05:31:06.450Z,99389.31
2022-11-24T05:36:05.182Z,99392.66
2022-11-24T05:41:01.987Z,99401.81
2022-11-24T05:46:00.336Z,99405.50
2022-11-24T05:50:58.201Z,99413.72
2022-11-24T05:55:54.884Z,99410.09
2022-11-24T06:00:51.277Z,99415.13
2022-11-24T06:05:47.684Z,99417.09
2022-11-24T06:10:44.098Z,99431.91
2022-11-24T06:15:41.414Z,99430.97
2022-11-24T06:20:37.916Z,99439.41
2022-11-24T06:25:34.763Z,99443.22
2022-11-24T06:30:31.180Z,99458.78
2022-11-24T06:35:27.712Z,99452.91
2022-11-24T06:40:24.106Z,99466.09
2022-11-24T06:45:20.495Z,99479.69
2022-11-24T06:50:16.983Z,99491.88
2022-11-24T06:55:13.538Z,99490.56
2022-11-24T07:00:10.762Z,99486.91
2022-11-24T07:05:07.559Z,99494.84
2022-11-24T07:10:04.353Z,99496.66
2022-11-24T07:15:00.826Z,99498.09
2022-11-24T07:19:57.291Z,99504.59
2022-11-24T07:24:53.675Z,99504.63
2022-11-24T07:29:50.059Z,99515.56
2022-11-24T07:34:46.505Z,99520.84
2022-11-24T07:39:43.012Z,99535.63
2022-11-24T07:44:40.652Z,99545.59
2022-11-24T07:49:37.041Z,99543.28
2022-11-24T07:54:33.721Z,99542.34
2022-11-24T07:59:30.308Z,99548.59
2022-11-24T08:04:26.809Z,99546.56
2022-11-24T08:09:23.164Z,99550.06
2022-11-24T08:14:19.506Z,99555.84
2022-11-24T08:19:15.929Z,99560.78
2022-11-24T08:24:15.154Z,99567.91
2022-11-24T08:29:11.529Z,99567.03
2022-11-24T08:34:08.042Z,99570.28
2022-11-24T08:39:04.427Z,99568.72
2022-11-24T08:44:00.828Z,99580.97
2022-11-24T08:48:57.263Z,99575.06
2022-11-24T08:53:55.820Z,99582.56
2022-11-24T08:58:52.834Z,99589.75
2022-11-24T09:03:51.185Z,99591.94
2022-11-24T09:08:48.606Z,99595.06
2022-11-24T09:13:45.369Z,99602.47
2022-11-24T09:18:42.661Z,99600.91
2022-11-24T09:23:40.451Z,99608.22
2022-11-24T09:28:37.036Z,99608.41
2022-11-24T09:33:33.942Z,99610.56
2022-11-24T09:38:30.400Z,99611.53
2022-11-24T09:43:37.260Z,99626.91
2022-11-24T09:48:39.176Z,99629.44
2022-11-24T09:53:48.281Z,99630.03
2022-11-24T09:59:06.337Z,99624.03
2022-11-24T10:04:06.411Z,99629.44
2022-11-24T10:09:12.998Z,99641.91
2022-11-24T10:14:29.883Z,99645.19
2022-11-24T10:19:45.967Z,99650.63
2022-11-24T10:25:07.163Z,99663.16
2022-11-24T10:30:13.454Z,99672.31
2022-11-24T10:35:22.622Z,99675.47
2022-11-24T10:40:57.463Z,99675.38
2022-11-24T10:45:45.531Z,99681.63
2022-11-24T10:50:42.560Z,99674.16
2022-11-24T10:55:54.380Z,99684.84
2022-11-24T11:00:51.059Z,99682.66
2022-11-24T11:05:59.916Z,99681.19
2022-11-24T11:11:20.951Z,99690.84
2022-11-24T11:16:28.140Z,99695.88
2022-11-24T11:21:37.857Z,99692.97
2022-11-24T11:26:38.077Z,99706.63
2022-11-24T11:31:36.341Z,99717.09
2022-11-24T11:36:33.467Z,99727.00
2022-11-24T11:41:36.784Z,99743.88
2022-11-24T11:46:33.757Z,99735.06
2022-11-24T11:51:56.373Z,99744.50
2022-11-24T11:57:10.696Z,99762.19
2022-11-24T12:02:13.551Z,99758.09
2022-11-24T12:07:34.715Z,99766.75
2022-11-24T12:12:49.411Z,99772.06
2022-11-24T12:18:01.270Z,99775.09
2022-11-24T12:23:18.705Z,99774.59
2022-11-24T12:28:32.547Z,99788.44
2022-11-24T12:34:12.044Z,99791.56
2022-11-24T12:39:27.687Z,99789.41
2022-11-24T12:45:01.605Z,99784.84
2022-11-24T12:50:25.982Z,99783.88
2022-11-24T12:55:23.331Z,99792.44
2022-11-24T13:00:20.245Z,99795.66
2022-11-24T13:05:38.421Z,99807.00
2022-11-24T13:10:56.383Z,99805.78
2022-11-24T13:16:20.681Z,99813.75
2022-11-24T13:21:31.110Z,99811.81
2022-11-24T13:26:30.854Z,99809.75
2022-11-24T13:31:27.648Z,99815.78
2022-11-24T13:36:24.096Z,99815.66
2022-11-24T13:41:35.950Z,99815.19
2022-11-24T13:47:26.310Z,99815.19
2022-11-24T13:52:53.535Z,99833.84
2022-11-24T13:57:53.330Z,99824.09
2022-11-24T14:02:52.293Z,99833.88
2022-11-24T14:07:50.359Z,99830.59
2022-11-24T14:12:46.954Z,99841.72
2022-11-24T14:17:43.583Z,99836.88
2022-11-24T14:22:41.288Z,99844.34
2022-11-24T14:27:38.897Z,99842.78
2022-11-24T14:32:35.807Z,99846.78
2022-11-24T14:37:32.232Z,99854.13
2022-11-24T14:42:28.876Z,99853.28
2022-11-24T14:47:36.179Z,99863.03
2022-11-24T14:52:33.137Z,99870.16
2022-11-24T14:57:33.847Z,99864.38
2022-11-24T15:03:02.586Z,99876.19
2022-11-24T15:08:03.096Z,99868.59
2022-11-24T15:13:02.014Z,99877.53
2022-11-24T15:18:00.539Z,99884.50
2022-11-24T15:23:15.694Z,99884.78
2022-11-24T15:28:12.136Z,99892.13
2022-11-24T15:33:16.773Z,99889.59
2022-11-24T15:38:14.399Z,99889.69
2022-11-24T15:43:19.227Z,99897.13
2022-11-24T15:48:18.211Z,99897.22
2022-11-24T15:53:39.035Z,99900.41
2022-11-24T15:58:35.405Z,99902.94
2022-11-24T16:03:46.917Z,99916.28
2022-11-24T16:08:44.177Z,99926.72
2022-11-24T16:13:40.614Z,99924.19
2022-11-24T16:18:39.577Z,99920.00
2022-11-24T16:23:36.222Z,99928.78
2022-11-24T16:28:33.197Z,99932.28
2022-11-24T16:33:30.046Z,99929.75
2022-11-24T16:38:26.357Z,99935.00
2022-11-24T16:43:22.976Z,99928.53
2022-11-24T16:48:19.310Z,99932.56
2022-11-24T16:53:15.638Z,99940.97
2022-11-24T16:58:12.009Z,99934.63
2022-11-24T17:03:08.443Z,99939.00
2022-11-24T17:08:05.348Z,99937.00
2022-11-24T17:13:02.844Z,99934.38
2022-11-24T17:18:23.636Z,99943.75
2022-11-24T17:23:15.861Z,99941.22
2022-11-24T17:28:12.165Z,99938.22
2022-11-24T17:33:08.692Z,99947.78
2022-11-24T17:38:05.152Z,99948.91
2022-11-24T17:43:01.746Z,99951.53
2022-11-24T17:48:01.203Z,99953.16
2022-11-24T17:52:57.669Z,99955.91
2022-11-24T17:57:53.976Z,99955.44
2022-11-24T18:02:50.382Z,99960.88
2022-11-24T18:07:46.796Z,99960.31
2022-11-24T18:12:43.536Z,99964.44
2022-11-24T18:17:39.848Z,99956.91
2022-11-24T18:23:04.038Z,99956.78
2022-11-24T18:27:52.558Z,99965.66
2022-11-24T18:32:48.891Z,99967.00
2022-11-24T18:37:45.225Z,99960.50
2022-11-24T18:42:41.640Z,99958.84
2022-11-24T18:47:37.952Z,99967.66
2022-11-24T18:52:34.277Z,99962.56
2022-11-24T18:57:31.558Z,99960.72
2022-11-24T19:02:28.018Z,99968.59
2022-11-24T19:07:24.590Z,99970.00
2022-11-24T19:12:20.966Z,99970.84
2022-11-24T19:17:17.278Z,99981.63
2022-11-24T19:22:15.665Z,99976.25
2022-11-24T19:27:13.174Z,99982.63
2022-11-24T19:32:09.867Z,99988.44
2022-11-24T19:37:06.554Z,99990.47
2022-11-24T19:42:04.629Z,99996.16
2022-11-24T19:47:00.960Z,100008.88
2022-11-24T19:51:57.298Z,100007.78
2022-11-24T19:56:55.338Z,100019.16
2022-11-24T20:01:52.845Z,100022.63
2022-11-24T20:06:49.294Z,100029.44
2022-11-24T20:11:46.170Z,100022.63
2022-11-24T20:16:43.356Z,100026.00
2022-11-24T20:21:41.626Z,100034.09
2022-11-24T20:26:41.350Z,100032.31
2022-11-24T20:31:40.970Z,100039.09
2022-11-24T20:36:39.849Z,100039.28
2022-11-24T20:41:39.970Z,100042.28
2022-11-24T20:46:37.876Z,100041.81
2022-11-24T20:51:38.984Z,100038.06
2022-11-24T20:56:39.725Z,100041.56
2022-11-24T21:01:42.496Z,100045.03
2022-11-24T21:06:39.888Z,100039.94
2022-11-24T21:11:37.582Z,100047.25
2022-11-24T21:16:36.702Z,100042.41
2022-11-24T21:21:35.158Z,100044.44
2022-11-24T21:26:34.167Z,100046.56
2022-11-24T21:31:30.866Z,100048.25
2022-11-24T21:36:27.407Z,100051.47
2022-11-24T21:41:27.800Z,100039.75
2022-11-24T21:46:24.812Z,100034.31
2022-11-24T21:51:21.179Z,100047.41
2022-11-24T21:56:19.647Z,100041.28
2022-11-24T22:01:18.458Z,100046.56
2022-11-24T22:06:16.515Z,100056.81
2022-11-24T22:11:16.101Z,100052.97
2022-11-24T22:16:15.302Z,100039.25
2022-11-24T22:21:14.348Z,100051.69
2022-11-24T22:26:14.649Z,100049.22
2022-11-24T22:31:25.318Z,100042.63
2022-11-24T22:36:23.887Z,100043.81
2022-11-24T22:41:20.479Z,100043.97
2022-11-24T22:46:19.479Z,100038.03
2022-11-24T22:51:18.107Z,100037.28
2022-11-24T22:56:15.237Z,100033.13
2022-11-24T23:01:16.820Z,100029.63
2022-11-24T23:06:15.954Z,100017.94
2022-11-24T23:11:30.731Z,100019.38
2022-11-24T23:16:30.148Z,100032.78
2022-11-24T23:21:31.930Z,100033.38
2022-11-24T23:26:40.394Z,100026.59
2022-11-24T23:31:39.660Z,100035.34
2022-11-24T23:36:36.379Z,100032.34
2022-11-24T23:41:33.653Z,100030.66
2022-11-24T23:46:30.842Z,100028.03
2022-11-24T23:51:29.877Z,100028.13
2022-11-24T23:56:34.198Z,100021.41
